Time;durP1;ratioP1;P1;durP2;ratioP2;P2;SDS_P1;SDS_P2;PMS_P1;PMS_P2;Temp;Humidity;BMP_temperature;BMP_pressure;BME280_temperature;BME280_humidity;BME280_pressure;Samples;Min_cycle;Max_cycle;Signal;HPM_P1;HPM_P2
2021/08/12 00:00:12;;;;;;;5.10;4.60;;;;;;;;;;5113957;28;20044;-60
2021/08/12 00:02:37;;;;;;;4.75;4.25;;;;;;;;;;5113772;28;20437;-61
2021/08/12 00:05:06;;;;;;;4.28;3.88;;;;;;;;;;5113864;28;20503;-61
2021/08/12 00:07:32;;;;;;;4.47;4.03;;;;;;;;;;5113739;28;20055;-61
2021/08/12 00:09:59;;;;;;;5.47;4.38;;;;;;;;;;5113729;28;20588;-61
2021/08/12 00:12:25;;;;;;;4.07;3.75;;;;;;;;;;5113662;28;20024;-61
2021/08/12 00:14:50;;;;;;;5.40;4.10;;;;;;;;;;5113537;28;20487;-61
2021/08/12 00:17:16;;;;;;;4.25;3.65;;;;;;;;;;5114002;28;20031;-60
2021/08/12 00:19:41;;;;;;;4.53;4.13;;;;;;;;;;5113524;28;20059;-61
2021/08/12 00:22:08;;;;;;;5.47;3.90;;;;;;;;;;5113587;28;20384;-61
2021/08/12 00:24:33;;;;;;;4.25;3.95;;;;;;;;;;5113546;28;20035;-61
2021/08/12 00:27:01;;;;;;;4.53;3.72;;;;;;;;;;5113417;28;20032;-61
2021/08/12 00:29:28;;;;;;;5.97;4.32;;;;;;;;;;5113501;28;20082;-61
2021/08/12 00:31:53;;;;;;;6.75;5.05;;;;;;;;;;5113777;28;20063;-61
2021/08/12 00:34:19;;;;;;;11.38;8.02;;;;;;;;;;5095362;28;20036;-61
2021/08/12 00:36:44;;;;;;;7.13;5.15;;;;;;;;;;5094876;28;20031;-61
2021/08/12 00:39:10;;;;;;;4.28;3.83;;;;;;;;;;5095361;28;20082;-61
2021/08/12 00:41:38;;;;;;;3.95;3.65;;;;;;;;;;5095427;28;20085;-60
2021/08/12 00:44:07;;;;;;;4.32;3.78;;;;;;;;;;5113425;28;20039;-60
2021/08/12 00:46:33;;;;;;;6.40;4.10;;;;;;;;;;5095213;28;20031;-60
2021/08/12 00:49:00;;;;;;;6.22;5.40;;;;;;;;;;5094930;28;20039;-60
2021/08/12 00:51:26;;;;;;;7.70;5.13;;;;;;;;;;5095088;28;20098;-61
2021/08/12 00:53:53;;;;;;;6.78;4.18;;;;;;;;;;5094974;28;20057;-61
2021/08/12 00:56:18;;;;;;;15.57;9.50;;;;;;;;;;5113256;28;20019;-61
2021/08/12 00:58:44;;;;;;;7.53;4.90;;;;;;;;;;5078221;28;20504;-60
2021/08/12 01:01:09;;;;;;;5.65;4.57;;;;;;;;;;5094945;28;20039;-60
2021/08/12 01:03:36;;;;;;;5.80;4.13;;;;;;;;;;5095163;28;20511;-60
2021/08/12 01:06:02;;;;;;;7.00;4.47;;;;;;;;;;5095534;28;20051;-60
2021/08/12 01:08:45;;;;;;;6.07;3.63;;;;;;;;;;5117236;28;20475;-60
2021/08/12 01:11:32;;;;;;;4.47;3.92;;;;;;;;;;5098800;28;20047;-60
2021/08/12 01:14:25;;;;;;;4.97;4.47;;;;;;;;;;5098934;28;20036;-60
2021/08/12 01:16:55;;;;;;;4.53;4.13;;;;;;;;;;5098815;28;20035;-61
2021/08/12 01:19:22;;;;;;;4.18;3.78;;;;;;;;;;5117027;28;20498;-60
2021/08/12 01:21:54;;;;;;;5.45;3.75;;;;;;;;;;5098552;28;20027;-60
2021/08/12 01:24:21;;;;;;;3.80;3.50;;;;;;;;;;5098823;28;20494;-60
2021/08/12 01:26:52;;;;;;;4.18;3.83;;;;;;;;;;5098548;28;20555;-60
2021/08/12 01:29:40;;;;;;;4.43;4.10;;;;;;;;;;5098440;28;20491;-61
2021/08/12 01:32:10;;;;;;;4.47;4.07;;;;;;;;;;5098547;28;20027;-61
2021/08/12 01:34:42;;;;;;;4.72;4.00;;;;;;;;;;5098487;28;20039;-61
2021/08/12 01:37:12;;;;;;;4.72;4.32;;;;;;;;;;5097552;28;20375;-61
2021/08/12 01:39:40;;;;;;;4.28;3.92;;;;;;;;;;5098420;28;20040;-60
2021/08/12 01:42:05;;;;;;;5.45;4.15;;;;;;;;;;5098576;28;20036;-60
2021/08/12 01:44:32;;;;;;;6.07;4.40;;;;;;;;;;5098248;28;20514;-60
2021/08/12 01:47:01;;;;;;;4.63;4.07;;;;;;;;;;5098102;28;20122;-58
2021/08/12 01:49:28;;;;;;;6.10;3.83;;;;;;;;;;5097892;28;20433;-59
2021/08/12 01:51:54;;;;;;;5.28;3.92;;;;;;;;;;5116353;28;20028;-59
2021/08/12 01:54:21;;;;;;;7.25;5.47;;;;;;;;;;5098043;28;20088;-59
2021/08/12 01:56:50;;;;;;;;;;;;;;;;;;5098546;28;20024;-58
2021/08/12 01:59:16;;;;;;;4.20;3.85;;;;;;;;;;5081197;28;19934;-58
2021/08/12 02:01:46;;;;;;;8.68;4.80;;;;;;;;;;5097802;28;20046;-58
2021/08/12 02:04:13;;;;;;;6.50;5.07;;;;;;;;;;5097673;28;20040;-58
2021/08/12 02:06:39;;;;;;;7.88;5.03;;;;;;;;;;5097814;28;20502;-58
2021/08/12 02:09:04;;;;;;;6.22;5.32;;;;;;;;;;5080579;28;20031;-58
2021/08/12 02:11:34;;;;;;;6.43;4.10;;;;;;;;;;5097918;28;20038;-59
2021/08/12 02:13:59;;;;;;;9.27;5.28;;;;;;;;;;5115979;28;20172;-58
2021/08/12 02:16:26;;;;;;;23.98;10.20;;;;;;;;;;5097727;28;20041;-58
2021/08/12 02:18:53;;;;;;;5.05;4.47;;;;;;;;;;5097282;28;20039;-59
2021/08/12 02:21:24;;;;;;;5.80;3.58;;;;;;;;;;5097674;28;20451;-58
2021/08/12 02:24:02;;;;;;;6.90;4.38;;;;;;;;;;5097392;28;20123;-58
2021/08/12 02:26:31;;;;;;;6.00;5.07;;;;;;;;;;5097524;28;20039;-58
2021/08/12 02:28:57;;;;;;;9.43;5.03;;;;;;;;;;5097421;28;20035;-60
2021/08/12 02:31:23;;;;;;;8.90;5.00;;;;;;;;;;5097520;28;20044;-58
2021/08/12 02:33:50;;;;;;;10.05;6.03;;;;;;;;;;5115716;28;20024;-59
2021/08/12 02:36:16;;;;;;;23.33;9.80;;;;;;;;;;5097392;28;20031;-59
2021/08/12 02:38:43;;;;;;;10.80;5.82;;;;;;;;;;5115377;28;20410;-58
2021/08/12 02:41:10;;;;;;;6.40;4.68;;;;;;;;;;5097059;28;20035;-58
2021/08/12 02:43:38;;;;;;;5.65;5.07;;;;;;;;;;5097023;28;20023;-58
2021/08/12 02:46:04;;;;;;;6.15;4.32;;;;;;;;;;5115366;28;20042;-61
2021/08/12 02:48:31;;;;;;;7.07;4.88;;;;;;;;;;5096930;28;20028;-60
2021/08/12 02:50:59;;;;;;;10.20;5.13;;;;;;;;;;5097303;28;20057;-59
2021/08/12 02:53:24;;;;;;;7.47;4.32;;;;;;;;;;5096923;28;20034;-60
2021/08/12 02:55:52;;;;;;;10.23;4.90;;;;;;;;;;5096912;28;20494;-60
2021/08/12 02:58:17;;;;;;;4.93;4.13;;;;;;;;;;5096829;28;20477;-60
2021/08/12 03:00:44;;;;;;;7.43;4.60;;;;;;;;;;5096642;28;20035;-61
2021/08/12 03:03:10;;;;;;;10.25;6.60;;;;;;;;;;5096823;28;20024;-61
2021/08/12 03:05:36;;;;;;;20.08;9.80;;;;;;;;;;5115153;28;20039;-60
2021/08/12 03:08:06;;;;;;;7.68;4.95;;;;;;;;;;5096800;28;20088;-60
2021/08/12 03:10:32;;;;;;;5.72;4.63;;;;;;;;;;5096521;28;20043;-61
2021/08/12 03:12:59;;;;;;;11.23;4.78;;;;;;;;;;5096601;28;20362;-60
2021/08/12 03:15:26;;;;;;;11.77;4.97;;;;;;;;;;5114485;28;20042;-61
2021/08/12 03:17:52;;;;;;;6.68;4.28;;;;;;;;;;5096614;28;20035;-61
2021/08/12 03:20:18;;;;;;;5.10;4.15;;;;;;;;;;5096707;28;20143;-60
2021/08/12 03:22:44;;;;;;;6.22;4.72;;;;;;;;;;5096490;28;20114;-60
2021/08/12 03:25:09;;;;;;;4.85;4.25;;;;;;;;;;5114049;28;20078;-60
2021/08/12 03:27:38;;;;;;;6.57;4.53;;;;;;;;;;5096222;28;20039;-60
2021/08/12 03:30:04;;;;;;;8.85;5.18;;;;;;;;;;5095609;28;20130;-60
2021/08/12 03:32:29;;;;;;;8.20;5.30;;;;;;;;;;5095811;28;20035;-60
2021/08/12 03:34:56;;;;;;;5.47;4.80;;;;;;;;;;5096051;28;20031;-60
2021/08/12 03:37:21;;;;;;;9.10;5.20;;;;;;;;;;5092158;28;20055;-60
2021/08/12 03:39:47;;;;;;;19.85;10.40;;;;;;;;;;5093904;28;20032;-59
2021/08/12 03:42:12;;;;;;;18.95;8.70;;;;;;;;;;5092652;28;20126;-58
2021/08/12 03:44:38;;;;;;;5.82;4.88;;;;;;;;;;5092588;28;20040;-60
2021/08/12 03:47:06;;;;;;;6.85;4.88;;;;;;;;;;5092408;28;20518;-60
2021/08/12 03:49:32;;;;;;;46.30;26.00;;;;;;;;;;5092355;28;20036;-60
2021/08/12 03:51:57;;;;;;;23.45;14.05;;;;;;;;;;5093682;28;20117;-60
2021/08/12 03:54:23;;;;;;;7.68;5.72;;;;;;;;;;5092312;28;20028;-60
2021/08/12 03:56:49;;;;;;;7.53;4.95;;;;;;;;;;5092340;28;20020;-60
2021/08/12 03:59:14;;;;;;;6.43;5.72;;;;;;;;;;5092256;28;20051;-60
2021/08/12 04:01:41;;;;;;;7.53;5.13;;;;;;;;;;5092413;28;20028;-60
2021/08/12 04:04:07;;;;;;;5.30;4.25;;;;;;;;;;5093579;28;20114;-60
2021/08/12 04:06:34;;;;;;;6.80;4.05;;;;;;;;;;5092259;28;20031;-60
2021/08/12 04:09:00;;;;;;;5.25;3.58;;;;;;;;;;5093182;28;20082;-58
2021/08/12 04:11:26;;;;;;;4.65;4.00;;;;;;;;;;5092130;28;20024;-63
2021/08/12 04:13:52;;;;;;;6.45;4.72;;;;;;;;;;5093356;28;20032;-58
2021/08/12 04:16:17;;;;;;;9.75;6.57;;;;;;;;;;5093290;28;20365;-58
2021/08/12 04:18:43;;;;;;;17.70;8.95;;;;;;;;;;5091967;28;20032;-59
2021/08/12 04:21:09;;;;;;;12.30;7.47;;;;;;;;;;5092827;28;20073;-58
2021/08/12 04:23:36;;;;;;;7.90;5.47;;;;;;;;;;5092041;28;20408;-59
2021/08/12 04:29:58;;;;;;;6.72;4.57;;;;;;;;;;5093733;28;20070;-58
2021/08/12 04:35:59;;;;;;;28.15;12.48;;;;;;;;;;5093870;28;20046;-58
2021/08/12 04:45:15;;;;;;;7.85;4.68;;;;;;;;;;5118334;28;20038;-58
2021/08/12 04:51:16;;;;;;;8.18;4.70;;;;;;;;;;5117967;28;20046;-58
2021/08/12 04:57:18;;;;;;;5.63;4.60;;;;;;;;;;5117845;28;20035;-58
2021/08/12 05:03:18;;;;;;;8.90;4.57;;;;;;;;;;5117976;28;20062;-58
2021/08/12 05:09:20;;;;;;;5.93;4.75;;;;;;;;;;5117737;28;20050;-58
2021/08/12 05:18:57;;;;;;;7.53;4.68;;;;;;;;;;5117687;28;20477;-58
2021/08/12 05:24:58;;;;;;;6.05;4.78;;;;;;;;;;5117302;28;20042;-58
2021/08/12 05:31:01;;;;;;;6.63;4.97;;;;;;;;;;5117425;28;20108;-58
2021/08/12 05:37:02;;;;;;;8.27;5.20;;;;;;;;;;5117316;28;20042;-58
2021/08/12 05:46:52;;;;;;;5.40;4.90;;;;;;;;;;5116902;28;20137;-58
2021/08/12 05:52:53;;;;;;;7.22;5.07;;;;;;;;;;5116303;28;20090;-58
2021/08/12 05:58:54;;;;;;;6.05;4.90;;;;;;;;;;5116899;28;20071;-58
2021/08/12 06:04:56;;;;;;;7.75;4.97;;;;;;;;;;5116784;28;20105;-58
2021/08/12 06:10:57;;;;;;;6.38;4.95;;;;;;;;;;5117157;28;20498;-58
2021/08/12 06:16:57;;;;;;;7.85;4.97;;;;;;;;;;5116570;28;20026;-58
2021/08/12 06:23:00;;;;;;;8.55;4.93;;;;;;;;;;5116429;28;20089;-58
2021/08/12 06:29:02;;;;;;;8.45;5.03;;;;;;;;;;5116060;28;20061;-58
2021/08/12 06:35:04;;;;;;;8.48;4.68;;;;;;;;;;5116184;28;20545;-58
2021/08/12 06:41:05;;;;;;;11.20;4.93;;;;;;;;;;5116369;28;20084;-58
2021/08/12 06:50:35;;;;;;;4.90;4.40;;;;;;;;;;5052935;28;20067;-58
2021/08/12 06:56:34;;;;;;;5.75;5.10;;;;;;;;;;5053127;28;20491;-58
2021/08/12 07:02:36;;;;;;;6.53;4.30;;;;;;;;;;5053048;28;20099;-58
2021/08/12 07:12:47;;;;;;;4.97;4.00;;;;;;;;;;5052918;28;20400;-59
2021/08/12 07:18:49;;;;;;;6.07;4.10;;;;;;;;;;5094970;28;20117;-58
2021/08/12 07:24:50;;;;;;;6.03;4.25;;;;;;;;;;5094603;28;20163;-58
2021/08/12 07:27:16;;;;;;;5.70;4.10;;;;;;;;;;5093104;28;20118;-58
2021/08/12 07:29:41;;;;;;;4.60;3.58;;;;;;;;;;5092505;28;20475;-58
2021/08/12 07:32:08;;;;;;;6.65;4.47;;;;;;;;;;5092559;28;20032;-58
2021/08/12 07:34:42;;;;;;;6.38;4.00;;;;;;;;;;5092651;28;20032;-58
2021/08/12 07:37:17;;;;;;;6.75;4.15;;;;;;;;;;5131737;27;20497;-61
2021/08/12 07:39:43;;;;;;;4.70;4.05;;;;;;;;;;5131469;28;20485;-61
2021/08/12 07:42:08;;;;;;;6.32;4.00;;;;;;;;;;5130158;28;20021;-61
2021/08/12 07:44:34;;;;;;;7.18;3.65;;;;;;;;;;5113160;28;20029;-61
2021/08/12 07:46:59;;;;;;;4.15;3.67;;;;;;;;;;5130152;28;20049;-61
2021/08/12 07:49:26;;;;;;;4.07;3.72;;;;;;;;;;5130096;28;20031;-61
2021/08/12 07:51:51;;;;;;;3.83;3.53;;;;;;;;;;5131234;27;20466;-61
2021/08/12 07:54:17;;;;;;;4.72;3.75;;;;;;;;;;5131170;28;20031;-61
2021/08/12 07:56:43;;;;;;;4.00;3.60;;;;;;;;;;5131076;27;20414;-61
2021/08/12 07:59:08;;;;;;;3.72;3.42;;;;;;;;;;5131201;28;20147;-61
2021/08/12 08:01:34;;;;;;;4.63;3.33;;;;;;;;;;5131276;27;20373;-61
2021/08/12 08:04:01;;;;;;;5.28;3.03;;;;;;;;;;5131240;28;20072;-61
2021/08/12 08:06:27;;;;;;;3.00;2.78;;;;;;;;;;5131148;27;20094;-61
2021/08/12 08:08:53;;;;;;;3.30;3.10;;;;;;;;;;5130998;27;20427;-61
2021/08/12 08:11:18;;;;;;;3.40;3.10;;;;;;;;;;5130982;27;20043;-61
2021/08/12 08:13:44;;;;;;;5.15;3.72;;;;;;;;;;5130926;28;20027;-61
2021/08/12 08:16:09;;;;;;;4.53;2.35;;;;;;;;;;5130855;27;20057;-61
2021/08/12 08:18:35;;;;;;;2.92;2.65;;;;;;;;;;5130945;27;20023;-61
2021/08/12 08:21:00;;;;;;;3.03;2.63;;;;;;;;;;5130876;27;20354;-61
2021/08/12 08:23:26;;;;;;;3.50;2.80;;;;;;;;;;5129575;28;20102;-61
2021/08/12 08:25:51;;;;;;;2.65;2.35;;;;;;;;;;5130646;27;20442;-61
2021/08/12 08:28:17;;;;;;;2.80;2.60;;;;;;;;;;5130694;28;20031;-60
2021/08/12 08:30:43;;;;;;;2.90;2.70;;;;;;;;;;5130664;27;20113;-61
2021/08/12 08:33:11;;;;;;;3.13;2.90;;;;;;;;;;5129260;28;20042;-60
2021/08/12 08:35:37;;;;;;;2.95;2.20;;;;;;;;;;5129986;27;20054;-60
2021/08/12 08:38:02;;;;;;;2.63;2.42;;;;;;;;;;5130500;28;20381;-61
2021/08/12 08:40:28;;;;;;;2.70;2.50;;;;;;;;;;5130338;27;20030;-61
2021/08/12 08:42:54;;;;;;;3.08;2.88;;;;;;;;;;5130300;28;20107;-61
2021/08/12 08:45:21;;;;;;;6.65;2.78;;;;;;;;;;5130274;27;20019;-61
2021/08/12 08:47:49;;;;;;;3.90;2.28;;;;;;;;;;5121347;28;20032;-61
2021/08/12 08:50:17;;;;;;;2.65;2.35;;;;;;;;;;5116561;28;20027;-61
2021/08/12 08:52:42;;;;;;;2.63;2.42;;;;;;;;;;5116459;28;20027;-61
2021/08/12 08:55:08;;;;;;;2.55;2.33;;;;;;;;;;5116351;28;20020;-60
2021/08/12 08:57:34;;;;;;;2.60;2.40;;;;;;;;;;5116312;28;20485;-60
2021/08/12 09:00:00;;;;;;;2.70;2.50;;;;;;;;;;5116302;28;20039;-61
2021/08/12 09:02:26;;;;;;;4.68;2.53;;;;;;;;;;5116272;28;20066;-61
2021/08/12 09:04:51;;;;;;;2.35;2.25;;;;;;;;;;5116212;28;20018;-61
2021/08/12 09:07:17;;;;;;;2.65;2.45;;;;;;;;;;5116165;28;20072;-61
2021/08/12 09:09:42;;;;;;;2.50;2.30;;;;;;;;;;5116057;28;20016;-61
2021/08/12 09:12:08;;;;;;;2.50;2.30;;;;;;;;;;5116018;28;20028;-61
2021/08/12 09:14:38;;;;;;;2.55;2.40;;;;;;;;;;5116036;28;20359;-61
2021/08/12 09:17:18;;;;;;;2.92;2.55;;;;;;;;;;5114793;28;20478;-61
2021/08/12 09:20:02;;;;;;;3.38;3.10;;;;;;;;;;5115867;28;20034;-61
2021/08/12 09:22:29;;;;;;;3.50;3.20;;;;;;;;;;5115815;28;20043;-61
2021/08/12 09:24:54;;;;;;;5.10;2.90;;;;;;;;;;5115861;28;20373;-60
2021/08/12 09:27:21;;;;;;;3.03;2.75;;;;;;;;;;5115712;28;20023;-61
2021/08/12 09:29:46;;;;;;;3.50;3.20;;;;;;;;;;5115732;28;20019;-60
2021/08/12 09:32:11;;;;;;;3.10;2.78;;;;;;;;;;5115791;28;20031;-60
2021/08/12 09:34:40;;;;;;;4.35;2.80;;;;;;;;;;5115725;28;20026;-60
2021/08/12 09:37:06;;;;;;;3.20;2.80;;;;;;;;;;5115488;28;20043;-60
2021/08/12 09:39:32;;;;;;;3.10;2.80;;;;;;;;;;5114605;28;20016;-61
2021/08/12 09:41:58;;;;;;;2.88;2.65;;;;;;;;;;5115613;28;20027;-61
2021/08/12 09:44:44;;;;;;;2.50;2.30;;;;;;;;;;5115414;28;20020;-61
2021/08/12 09:47:13;;;;;;;2.38;2.17;;;;;;;;;;5115341;28;20394;-60
2021/08/12 09:49:43;;;;;;;2.70;2.50;;;;;;;;;;5115528;28;20023;-61
2021/08/12 09:52:18;;;;;;;3.15;2.38;;;;;;;;;;5115483;28;20035;-61
2021/08/12 09:54:44;;;;;;;3.00;2.80;;;;;;;;;;5115287;28;20058;-61
2021/08/12 09:57:16;;;;;;;3.10;2.55;;;;;;;;;;5113976;28;20022;-61
2021/08/12 09:59:54;;;;;;;2.78;2.58;;;;;;;;;;5114384;28;20028;-61
2021/08/12 10:02:20;;;;;;;3.38;2.72;;;;;;;;;;5113897;28;20461;-61
2021/08/12 10:04:45;;;;;;;2.20;2.10;;;;;;;;;;5115054;28;20016;-61
2021/08/12 10:07:31;;;;;;;2.33;2.13;;;;;;;;;;5115036;28;20028;-60
2021/08/12 10:09:56;;;;;;;4.03;1.98;;;;;;;;;;5114936;28;20039;-61
2021/08/12 10:12:34;;;;;;;2.25;2.10;;;;;;;;;;5114941;28;20020;-61
2021/08/12 10:14:59;;;;;;;2.55;2.20;;;;;;;;;;5114934;28;20473;-60
2021/08/12 10:17:25;;;;;;;4.03;2.25;;;;;;;;;;5114974;28;20012;-61
2021/08/12 10:19:51;;;;;;;3.00;2.80;;;;;;;;;;5114779;28;20031;-61
2021/08/12 10:22:17;;;;;;;2.63;2.42;;;;;;;;;;5114751;28;20520;-60
2021/08/12 10:24:42;;;;;;;2.50;2.30;;;;;;;;;;5114681;28;20051;-60
2021/08/12 10:27:07;;;;;;;2.22;2.10;;;;;;;;;;5114535;28;20031;-61
2021/08/12 10:29:35;;;;;;;2.40;2.00;;;;;;;;;;5114591;28;20096;-61
2021/08/12 10:32:00;;;;;;;1.95;1.85;;;;;;;;;;5114655;28;20042;-61
2021/08/12 10:34:26;;;;;;;2.30;2.20;;;;;;;;;;5114648;28;20032;-61
2021/08/12 10:36:52;;;;;;;2.08;1.98;;;;;;;;;;5114294;28;20477;-61
2021/08/12 10:39:18;;;;;;;1.80;1.70;;;;;;;;;;5114460;28;20465;-61
2021/08/12 10:41:44;;;;;;;2.10;1.90;;;;;;;;;;5114396;28;20019;-60
2021/08/12 10:44:10;;;;;;;1.90;1.80;;;;;;;;;;5113068;28;20436;-61
2021/08/12 10:46:36;;;;;;;2.45;2.25;;;;;;;;;;5114408;28;20023;-61
2021/08/12 10:49:20;;;;;;;2.08;1.80;;;;;;;;;;5114244;28;20449;-60
2021/08/12 10:51:50;;;;;;;2.05;1.95;;;;;;;;;;5112952;28;20028;-61
2021/08/12 10:54:16;;;;;;;1.98;1.88;;;;;;;;;;5114164;28;20457;-61
2021/08/12 10:56:43;;;;;;;2.03;1.90;;;;;;;;;;5114123;28;20485;-61
2021/08/12 10:59:09;;;;;;;2.28;2.08;;;;;;;;;;5112960;28;20023;-60
2021/08/12 11:01:39;;;;;;;2.20;2.03;;;;;;;;;;5112869;28;20119;-61
2021/08/12 11:04:05;;;;;;;2.33;2.22;;;;;;;;;;5114032;28;20031;-61
2021/08/12 11:06:42;;;;;;;2.35;2.17;;;;;;;;;;5112634;28;20374;-61
2021/08/12 11:09:08;;;;;;;2.40;2.20;;;;;;;;;;5113953;28;20546;-61
2021/08/12 11:11:33;;;;;;;1.90;1.80;;;;;;;;;;5113609;28;20019;-61
2021/08/12 11:13:59;;;;;;;1.90;1.80;;;;;;;;;;5113833;28;20031;-61
2021/08/12 11:16:25;;;;;;;4.05;2.35;;;;;;;;;;5113811;28;20016;-60
2021/08/12 11:18:51;;;;;;;2.05;1.88;;;;;;;;;;5113588;28;20026;-61
2021/08/12 11:21:31;;;;;;;2.00;1.83;;;;;;;;;;5113997;28;20023;-61
2021/08/12 11:23:57;;;;;;;2.30;2.08;;;;;;;;;;5113720;28;20023;-61
2021/08/12 11:26:22;;;;;;;2.13;2.03;;;;;;;;;;5113677;28;20016;-61
2021/08/12 11:28:49;;;;;;;2.22;2.13;;;;;;;;;;5112472;28;20035;-61
2021/08/12 11:31:17;;;;;;;3.88;2.13;;;;;;;;;;5112276;28;20019;-61
2021/08/12 11:33:52;;;;;;;1.92;1.83;;;;;;;;;;5113584;28;20034;-61
2021/08/12 11:36:20;;;;;;;3.17;2.83;;;;;;;;;;5113173;28;20081;-61
2021/08/12 11:38:48;;;;;;;3.47;3.17;;;;;;;;;;5113489;28;20450;-61
2021/08/12 11:41:15;;;;;;;3.33;2.30;;;;;;;;;;5113538;28;20454;-61
2021/08/12 11:43:41;;;;;;;3.92;3.58;;;;;;;;;;5112248;28;20015;-60
2021/08/12 11:46:08;;;;;;;2.47;2.03;;;;;;;;;;5113723;28;20034;-61
2021/08/12 11:48:34;;;;;;;2.28;2.15;;;;;;;;;;5113539;28;20015;-61
2021/08/12 11:51:01;;;;;;;3.35;3.10;;;;;;;;;;5113536;28;20020;-61
2021/08/12 11:53:35;;;;;;;2.25;2.10;;;;;;;;;;5113433;28;20382;-60
2021/08/12 11:56:07;;;;;;;2.13;2.00;;;;;;;;;;5113442;28;20042;-61
2021/08/12 11:58:34;;;;;;;2.22;2.00;;;;;;;;;;5113341;28;20389;-60
2021/08/12 12:01:13;;;;;;;2.40;2.00;;;;;;;;;;5113371;28;20016;-60
2021/08/12 12:03:39;;;;;;;3.33;2.13;;;;;;;;;;5113495;28;20031;-61
2021/08/12 12:06:04;;;;;;;2.20;1.60;;;;;;;;;;5113515;28;20027;-60
2021/08/12 12:08:30;;;;;;;1.70;1.60;;;;;;;;;;5113337;28;20028;-60
2021/08/12 12:11:05;;;;;;;1.85;1.75;;;;;;;;;;5113359;28;20023;-61
2021/08/12 12:13:31;;;;;;;2.50;2.30;;;;;;;;;;5113340;28;20110;-60
2021/08/12 12:15:56;;;;;;;1.77;1.67;;;;;;;;;;5113127;28;20521;-61
2021/08/12 12:18:31;;;;;;;1.90;1.80;;;;;;;;;;5111878;28;20485;-61
2021/08/12 12:21:16;;;;;;;2.20;2.10;;;;;;;;;;5111944;28;20118;-61
2021/08/12 12:23:43;;;;;;;1.75;1.65;;;;;;;;;;5115184;28;20024;-61
2021/08/12 12:26:18;;;;;;;2.10;2.00;;;;;;;;;;5117007;28;20057;-61
2021/08/12 12:28:44;;;;;;;2.30;2.10;;;;;;;;;;5117039;28;20384;-61
2021/08/12 12:31:13;;;;;;;2.22;2.03;;;;;;;;;;5116918;28;20103;-61
2021/08/12 12:33:38;;;;;;;1.85;1.75;;;;;;;;;;5117040;28;20487;-61
2021/08/12 12:36:04;;;;;;;1.80;1.70;;;;;;;;;;5115164;28;20128;-61
2021/08/12 12:38:30;;;;;;;2.20;2.00;;;;;;;;;;5116848;28;20034;-61
2021/08/12 12:41:02;;;;;;;1.88;1.73;;;;;;;;;;5116788;28;20157;-61
2021/08/12 12:43:28;;;;;;;2.25;2.05;;;;;;;;;;5115523;28;20039;-61
2021/08/12 12:45:55;;;;;;;2.10;2.00;;;;;;;;;;5115457;28;20015;-60
2021/08/12 12:48:31;;;;;;;3.53;2.42;;;;;;;;;;5116597;28;20085;-61
2021/08/12 12:50:57;;;;;;;2.42;2.22;;;;;;;;;;5116720;28;20020;-61
2021/08/12 12:53:42;;;;;;;2.20;2.00;;;;;;;;;;5116506;28;20051;-61
2021/08/12 12:56:22;;;;;;;2.25;2.08;;;;;;;;;;5115301;28;20028;-61
2021/08/12 12:58:48;;;;;;;2.58;2.00;;;;;;;;;;5116551;28;20031;-61
2021/08/12 13:01:24;;;;;;;2.40;1.88;;;;;;;;;;5116514;28;20019;-61
2021/08/12 13:03:58;;;;;;;1.92;1.83;;;;;;;;;;5116413;28;20035;-61
2021/08/12 13:06:34;;;;;;;1.58;1.48;;;;;;;;;;5116411;28;20452;-60
2021/08/12 13:08:59;;;;;;;2.00;1.88;;;;;;;;;;5116136;28;20050;-61
2021/08/12 13:11:29;;;;;;;1.88;1.77;;;;;;;;;;5115082;28;20461;-61
2021/08/12 13:14:06;;;;;;;1.88;1.77;;;;;;;;;;5116130;28;20067;-61
2021/08/12 13:16:57;;;;;;;2.25;2.00;;;;;;;;;;5116063;28;20119;-61
2021/08/12 13:19:24;;;;;;;2.10;1.90;;;;;;;;;;5114098;28;20068;-61
2021/08/12 13:21:53;;;;;;;3.10;2.10;;;;;;;;;;5115975;28;20382;-61
2021/08/12 13:24:20;;;;;;;1.90;1.80;;;;;;;;;;5115867;28;20015;-61
2021/08/12 13:26:46;;;;;;;2.17;2.00;;;;;;;;;;5115880;28;20110;-61
2021/08/12 13:29:12;;;;;;;1.77;1.67;;;;;;;;;;5114588;28;20379;-61
2021/08/12 13:31:48;;;;;;;1.60;1.50;;;;;;;;;;5115904;28;20030;-61
2021/08/12 13:34:14;;;;;;;2.20;2.10;;;;;;;;;;5115562;28;20035;-61
2021/08/12 13:36:40;;;;;;;2.22;2.03;;;;;;;;;;5115452;28;20052;-61
2021/08/12 13:39:06;;;;;;;2.08;1.98;;;;;;;;;;5115638;28;20454;-61
2021/08/12 13:41:42;;;;;;;2.83;1.77;;;;;;;;;;5115739;28;20031;-61
2021/08/12 13:44:09;;;;;;;2.30;2.10;;;;;;;;;;5115672;28;20031;-61
2021/08/12 13:46:34;;;;;;;2.20;1.90;;;;;;;;;;5115488;28;20023;-61
2021/08/12 13:49:00;;;;;;;1.80;1.70;;;;;;;;;;5115276;28;20031;-61
2021/08/12 13:51:29;;;;;;;1.80;1.70;;;;;;;;;;5114072;28;20026;-61
2021/08/12 13:53:55;;;;;;;1.70;1.60;;;;;;;;;;5115586;28;20028;-61
2021/08/12 13:56:20;;;;;;;2.03;1.92;;;;;;;;;;5115344;28;20033;-61
2021/08/12 13:58:45;;;;;;;1.80;1.70;;;;;;;;;;5115319;28;20015;-61
2021/08/12 14:01:11;;;;;;;1.90;1.80;;;;;;;;;;5115207;28;20058;-61
2021/08/12 14:03:37;;;;;;;1.90;1.80;;;;;;;;;;5115137;28;20028;-61
2021/08/12 14:06:02;;;;;;;1.90;1.80;;;;;;;;;;5115219;28;20022;-61
2021/08/12 14:08:28;;;;;;;2.00;1.90;;;;;;;;;;5115120;27;20503;-61
2021/08/12 14:10:55;;;;;;;2.92;2.10;;;;;;;;;;5115488;28;20019;-63
2021/08/12 14:13:20;;;;;;;1.90;1.80;;;;;;;;;;5115039;28;20032;-63
2021/08/12 14:15:46;;;;;;;1.77;1.67;;;;;;;;;;5114883;28;20476;-63
2021/08/12 14:18:12;;;;;;;1.90;1.80;;;;;;;;;;5114946;28;20073;-62
2021/08/12 14:20:37;;;;;;;2.00;1.90;;;;;;;;;;5115105;28;20020;-62
2021/08/12 14:23:03;;;;;;;2.00;1.90;;;;;;;;;;5115167;28;20027;-63
2021/08/12 14:25:28;;;;;;;2.17;2.08;;;;;;;;;;5115055;28;20366;-63
2021/08/12 14:27:54;;;;;;;2.00;1.80;;;;;;;;;;5114969;28;20032;-63
2021/08/12 14:30:19;;;;;;;2.03;1.92;;;;;;;;;;5114833;28;20378;-63
2021/08/12 14:32:45;;;;;;;2.25;1.90;;;;;;;;;;5113471;28;20067;-61
2021/08/12 14:35:10;;;;;;;2.80;1.73;;;;;;;;;;5114401;28;20074;-61
2021/08/12 14:37:36;;;;;;;2.20;1.73;;;;;;;;;;5114746;28;20083;-61
2021/08/12 14:40:04;;;;;;;1.45;1.35;;;;;;;;;;5114092;28;20556;-61
2021/08/12 14:42:30;;;;;;;2.17;2.03;;;;;;;;;;5114616;28;20062;-61
2021/08/12 14:44:55;;;;;;;2.10;2.00;;;;;;;;;;5114165;28;20036;-61
2021/08/12 14:47:21;;;;;;;2.00;1.90;;;;;;;;;;5113179;28;20456;-61
2021/08/12 14:49:46;;;;;;;2.13;2.03;;;;;;;;;;5113104;28;20118;-61
2021/08/12 14:52:12;;;;;;;1.98;1.88;;;;;;;;;;5114213;28;20111;-61
2021/08/12 14:54:37;;;;;;;2.30;1.90;;;;;;;;;;5114223;28;20047;-61
2021/08/12 14:57:03;;;;;;;2.20;1.98;;;;;;;;;;5112839;28;20031;-61
2021/08/12 14:59:29;;;;;;;2.40;2.20;;;;;;;;;;5114432;28;20140;-61
2021/08/12 15:01:55;;;;;;;4.45;1.88;;;;;;;;;;5114172;28;20114;-61
2021/08/12 15:04:20;;;;;;;2.25;2.15;;;;;;;;;;5113992;28;20110;-61
2021/08/12 15:06:46;;;;;;;2.13;2.03;;;;;;;;;;5114026;28;20031;-61
2021/08/12 15:09:11;;;;;;;2.72;1.80;;;;;;;;;;5112614;28;20020;-61
2021/08/12 15:11:37;;;;;;;2.30;2.10;;;;;;;;;;5113843;28;20023;-60
2021/08/12 15:14:02;;;;;;;2.38;2.15;;;;;;;;;;5113865;28;20012;-61
2021/08/12 15:16:27;;;;;;;3.30;1.70;;;;;;;;;;5112657;28;20031;-61
2021/08/12 15:18:53;;;;;;;1.90;1.80;;;;;;;;;;5112593;28;20450;-61
2021/08/12 15:21:18;;;;;;;2.20;2.10;;;;;;;;;;5113690;28;20026;-61
2021/08/12 15:23:44;;;;;;;2.00;1.90;;;;;;;;;;5113711;28;20039;-60
2021/08/12 15:26:09;;;;;;;1.90;1.80;;;;;;;;;;5113587;28;20031;-61
2021/08/12 15:28:35;;;;;;;2.25;2.05;;;;;;;;;;5113645;28;20024;-61
2021/08/12 15:31:00;;;;;;;2.15;2.00;;;;;;;;;;5113676;28;20031;-61
2021/08/12 15:33:25;;;;;;;1.80;1.70;;;;;;;;;;5113648;28;20024;-60
2021/08/12 15:35:52;;;;;;;2.33;2.05;;;;;;;;;;5113141;28;20051;-61
2021/08/12 15:38:17;;;;;;;2.05;1.95;;;;;;;;;;5113520;28;20039;-61
2021/08/12 15:40:45;;;;;;;1.80;1.70;;;;;;;;;;5113575;28;20024;-61
2021/08/12 15:43:11;;;;;;;2.30;2.20;;;;;;;;;;5113386;28;20125;-61
2021/08/12 15:45:39;;;;;;;1.98;1.88;;;;;;;;;;5112521;28;20550;-60
2021/08/12 15:48:05;;;;;;;2.30;2.20;;;;;;;;;;5112431;28;20111;-61
2021/08/12 15:50:31;;;;;;;2.35;2.22;;;;;;;;;;5112729;28;20227;-61
2021/08/12 15:52:56;;;;;;;2.80;2.20;;;;;;;;;;5113948;28;20072;-60
2021/08/12 15:55:22;;;;;;;2.60;2.03;;;;;;;;;;5113635;28;20035;-61
2021/08/12 15:57:48;;;;;;;2.30;2.13;;;;;;;;;;5115341;28;20361;-60
2021/08/12 16:00:14;;;;;;;2.30;2.20;;;;;;;;;;5117719;28;20126;-61
2021/08/12 16:02:40;;;;;;;2.60;2.50;;;;;;;;;;5117691;28;20012;-61
2021/08/12 16:05:06;;;;;;;2.20;2.10;;;;;;;;;;5117593;27;20119;-61
2021/08/12 16:07:32;;;;;;;2.38;2.17;;;;;;;;;;5116949;28;20103;-61
2021/08/12 16:09:58;;;;;;;3.60;2.33;;;;;;;;;;5117845;28;20035;-61
2021/08/12 16:12:23;;;;;;;2.05;1.92;;;;;;;;;;5116379;28;20016;-61
2021/08/12 16:14:49;;;;;;;2.42;2.08;;;;;;;;;;5107849;28;20064;-61
2021/08/12 16:17:14;;;;;;;2.13;2.03;;;;;;;;;;5113827;28;20030;-60
2021/08/12 16:19:39;;;;;;;2.10;2.00;;;;;;;;;;5113672;28;20028;-60
2021/08/12 16:22:05;;;;;;;2.20;2.00;;;;;;;;;;5113461;28;20522;-61
2021/08/12 16:24:30;;;;;;;2.08;1.98;;;;;;;;;;5113346;28;20034;-60
2021/08/12 16:26:57;;;;;;;2.65;2.20;;;;;;;;;;5113349;28;20073;-61
2021/08/12 16:29:23;;;;;;;1.80;1.70;;;;;;;;;;5113460;28;20375;-61
2021/08/12 16:31:48;;;;;;;2.30;2.20;;;;;;;;;;5113571;28;20525;-61
2021/08/12 16:34:14;;;;;;;2.25;2.15;;;;;;;;;;5113290;28;20058;-60
2021/08/12 16:36:39;;;;;;;2.22;2.10;;;;;;;;;;5113118;28;20043;-61
2021/08/12 16:39:05;;;;;;;2.13;2.03;;;;;;;;;;5113520;28;20027;-60